createdAt,value
2023-05-21T00:00:53.892Z,66.47
2023-05-21T00:05:55.733Z,66.18
2023-05-21T00:10:57.450Z,66.13
2023-05-21T00:15:59.617Z,66.37
2023-05-21T00:21:01.780Z,66.18
2023-05-21T00:26:03.621Z,66.37
2023-05-21T00:31:06.212Z,66.02
2023-05-21T00:36:08.772Z,66.21
2023-05-21T00:41:10.876Z,66.36
2023-05-21T00:46:19.506Z,66.64
2023-05-21T00:51:21.656Z,66.70
2023-05-21T00:56:24.742Z,66.86
2023-05-21T01:01:26.553Z,67.11
2023-05-21T01:06:28.529Z,67.28
2023-05-21T01:11:40.024Z,67.45
2023-05-21T01:16:43.890Z,67.27
2023-05-21T01:21:57.588Z,67.38
2023-05-21T01:27:02.475Z,67.06
2023-05-21T01:32:22.448Z,66.96
2023-05-21T01:37:38.080Z,67.04
2023-05-21T01:42:44.382Z,67.04
2023-05-21T01:47:49.243Z,66.69
2023-05-21T01:52:53.671Z,66.81
2023-05-21T01:57:55.892Z,66.78
2023-05-21T02:02:58.721Z,67.04
2023-05-21T02:08:00.929Z,67.24
2023-05-21T02:13:03.758Z,67.34
2023-05-21T02:18:06.095Z,67.62
2023-05-21T02:23:07.945Z,68.00
2023-05-21T02:28:09.723Z,68.22
2023-05-21T02:33:14.434Z,68.90
2023-05-21T02:38:19.406Z,69.30
2023-05-21T02:43:21.461Z,69.53
2023-05-21T02:48:23.152Z,69.58
2023-05-21T02:53:25.640Z,69.76
2023-05-21T02:58:27.540Z,69.68
2023-05-21T03:03:29.598Z,69.68
2023-05-21T03:08:32.193Z,69.85
2023-05-21T03:13:34.008Z,69.69
2023-05-21T03:18:35.854Z,69.57
2023-05-21T03:23:37.665Z,69.64
2023-05-21T03:28:39.662Z,69.58
2023-05-21T03:33:42.040Z,69.75
2023-05-21T03:38:53.261Z,69.70
2023-05-21T03:43:55.980Z,70.30
2023-05-21T03:49:02.245Z,70.30
2023-05-21T03:54:06.582Z,70.93
2023-05-21T03:59:10.460Z,70.92
2023-05-21T04:04:12.356Z,71.09
2023-05-21T04:09:14.465Z,71.24
2023-05-21T04:14:16.623Z,71.70
2023-05-21T04:19:19.309Z,72.11
2023-05-21T04:24:22.502Z,72.05
2023-05-21T04:29:44.673Z,72.28
2023-05-21T04:34:46.681Z,72.46
2023-05-21T04:39:48.452Z,72.57
2023-05-21T04:44:50.975Z,72.97
2023-05-21T04:49:53.461Z,72.90
2023-05-21T04:54:56.164Z,72.92
2023-05-21T04:59:58.141Z,73.14
2023-05-21T05:04:59.994Z,72.66
2023-05-21T05:10:02.277Z,72.89
2023-05-21T05:15:06.603Z,73.20
2023-05-21T05:20:09.936Z,73.08
2023-05-21T05:25:12.543Z,72.89
2023-05-21T05:30:14.348Z,72.50
2023-05-21T05:35:16.388Z,72.41
2023-05-21T05:40:18.863Z,72.42
2023-05-21T05:45:21.294Z,72.08
2023-05-21T05:50:23.204Z,72.22
2023-05-21T05:55:26.676Z,72.00
2023-05-21T06:00:29.746Z,71.78
2023-05-21T06:05:34.752Z,71.77
2023-05-21T06:10:36.891Z,71.67
2023-05-21T06:15:43.030Z,71.81
2023-05-21T06:20:45.110Z,71.36
2023-05-21T06:25:47.191Z,71.04
2023-05-21T06:30:49.610Z,70.87
2023-05-21T06:35:52.157Z,70.54
2023-05-21T06:40:54.385Z,70.35
2023-05-21T06:46:14.092Z,69.23
2023-05-21T06:51:15.910Z,68.56
2023-05-21T06:56:17.611Z,68.30
2023-05-21T07:01:19.714Z,67.30
2023-05-21T07:06:22.338Z,67.17
2023-05-21T07:11:28.695Z,66.33
2023-05-21T07:16:31.458Z,66.43
2023-05-21T07:21:34.541Z,65.87
2023-05-21T07:26:37.387Z,65.78
2023-05-21T07:31:39.517Z,64.93
2023-05-21T07:36:42.436Z,63.63
2023-05-21T07:41:44.542Z,64.17
2023-05-21T07:46:46.626Z,62.86
2023-05-21T07:51:49.351Z,62.85
2023-05-21T07:56:51.290Z,63.13
2023-05-21T08:02:16.351Z,63.67
2023-05-21T08:07:19.880Z,63.21
2023-05-21T08:12:21.855Z,63.02
2023-05-21T08:17:23.978Z,63.32
2023-05-21T08:22:26.036Z,62.20
2023-05-21T08:27:28.545Z,60.78
2023-05-21T08:32:30.973Z,60.37
2023-05-21T08:37:33.667Z,59.52
2023-05-21T08:42:48.067Z,59.53
2023-05-21T08:47:59.603Z,59.75
2023-05-21T08:53:12.702Z,57.87
2023-05-21T08:58:25.738Z,56.92
2023-05-21T09:03:29.364Z,54.66
2023-05-21T09:08:35.726Z,54.84
2023-05-21T09:13:43.687Z,54.53
2023-05-21T09:18:51.985Z,54.10
2023-05-21T09:23:59.500Z,53.83
2023-05-21T09:29:01.621Z,52.88
2023-05-21T09:34:03.661Z,53.98
2023-05-21T09:39:08.075Z,53.60
2023-05-21T09:44:10.824Z,52.47
2023-05-21T09:49:26.679Z,52.24
2023-05-21T09:54:33.975Z,51.11
2023-05-21T09:59:37.240Z,50.56
2023-05-21T10:04:39.311Z,49.78
2023-05-21T10:09:42.376Z,50.39
2023-05-21T10:14:49.716Z,51.00
2023-05-21T10:19:52.890Z,50.12
2023-05-21T10:24:54.823Z,50.46
2023-05-21T10:30:00.458Z,49.95
2023-05-21T10:35:02.878Z,51.53
2023-05-21T10:40:04.872Z,51.40
2023-05-21T10:45:25.939Z,51.14
2023-05-21T10:50:49.857Z,51.28
2023-05-21T10:56:13.244Z,51.68
2023-05-21T11:01:16.348Z,50.67
2023-05-21T11:06:26.283Z,50.19
2023-05-21T11:11:44.225Z,50.94
2023-05-21T11:16:46.824Z,50.45
2023-05-21T11:21:51.898Z,49.79
2023-05-21T11:26:58.529Z,48.60
2023-05-21T11:32:02.742Z,47.88
2023-05-21T11:37:36.874Z,46.41
2023-05-21T11:42:39.384Z,47.25
2023-05-21T11:47:42.591Z,47.04
2023-05-21T11:52:44.676Z,45.85
2023-05-21T11:57:48.039Z,46.09
2023-05-21T12:02:52.048Z,45.20
2023-05-21T12:07:54.956Z,46.98
2023-05-21T12:12:57.543Z,47.00
2023-05-21T12:18:01.278Z,47.08
2023-05-21T12:23:03.238Z,46.60
2023-05-21T12:28:05.393Z,45.74
2023-05-21T12:33:07.409Z,44.12
2023-05-21T12:38:09.904Z,44.61
2023-05-21T12:43:11.804Z,44.04
2023-05-21T12:48:13.798Z,43.23
2023-05-21T12:53:15.933Z,44.02
2023-05-21T12:58:22.041Z,42.42
2023-05-21T13:03:26.146Z,42.44
2023-05-21T13:08:28.333Z,42.88
2023-05-21T13:13:30.437Z,44.02
2023-05-21T13:18:32.659Z,43.42
2023-05-21T13:23:34.597Z,44.23
2023-05-21T13:28:36.660Z,45.25
2023-05-21T13:33:38.556Z,43.54
2023-05-21T13:38:40.363Z,44.29
2023-05-21T13:43:43.205Z,44.66
2023-05-21T13:48:44.898Z,42.71
2023-05-21T13:53:46.841Z,41.71
2023-05-21T13:58:48.676Z,42.32
2023-05-21T14:03:50.800Z,41.87
2023-05-21T14:08:52.548Z,41.00
2023-05-21T14:13:54.633Z,41.61
2023-05-21T14:18:58.049Z,41.81
2023-05-21T14:23:59.849Z,40.66
2023-05-21T14:29:01.623Z,40.62
2023-05-21T14:34:03.649Z,40.52
2023-05-21T14:39:05.776Z,40.89
2023-05-21T14:44:08.232Z,43.04
2023-05-21T14:49:11.880Z,43.81
2023-05-21T14:54:14.110Z,44.78
2023-05-21T14:59:15.794Z,45.39
2023-05-21T15:04:33.908Z,44.21
2023-05-21T15:09:38.962Z,43.96
2023-05-21T15:14:41.066Z,42.40
2023-05-21T15:19:42.867Z,42.15
2023-05-21T15:24:45.155Z,43.09
2023-05-21T15:29:47.538Z,44.08
2023-05-21T15:34:49.939Z,42.82
2023-05-21T15:39:53.343Z,44.72
2023-05-21T15:44:55.935Z,45.12
2023-05-21T15:49:58.905Z,45.29
2023-05-21T15:55:00.838Z,46.21
2023-05-21T16:00:02.579Z,46.95
2023-05-21T16:05:10.524Z,47.09
2023-05-21T16:10:12.328Z,48.53
2023-05-21T16:15:14.239Z,49.03
2023-05-21T16:20:18.680Z,48.36
2023-05-21T16:25:20.877Z,48.64
2023-05-21T16:30:22.675Z,49.31
2023-05-21T16:35:24.441Z,48.82
2023-05-21T16:40:26.309Z,49.19
2023-05-21T16:45:38.750Z,48.48
2023-05-21T16:50:40.966Z,46.73
2023-05-21T16:55:43.270Z,47.72
2023-05-21T17:00:45.099Z,48.33
2023-05-21T17:05:47.007Z,47.80
2023-05-21T17:10:48.889Z,47.47
2023-05-21T17:15:51.260Z,48.09
2023-05-21T17:20:53.289Z,48.23
2023-05-21T17:25:55.168Z,48.56
2023-05-21T17:30:56.941Z,48.13
2023-05-21T17:35:58.665Z,48.73
2023-05-21T17:41:00.481Z,48.96
2023-05-21T17:46:02.227Z,49.29
2023-05-21T17:51:04.297Z,49.41
2023-05-21T17:56:06.855Z,49.95
2023-05-21T18:01:08.534Z,50.31
2023-05-21T18:06:10.452Z,50.72
2023-05-21T18:11:12.209Z,51.10
2023-05-21T18:16:14.909Z,51.20
2023-05-21T18:21:17.034Z,51.52
2023-05-21T18:26:20.474Z,52.16
2023-05-21T18:31:22.843Z,52.97
2023-05-21T18:36:26.565Z,53.17
2023-05-21T18:41:28.436Z,53.13
2023-05-21T18:46:31.626Z,54.08
2023-05-21T18:51:33.539Z,54.07
2023-05-21T18:56:35.434Z,54.19
2023-05-21T19:01:37.299Z,54.23
2023-05-21T19:06:39.018Z,54.66
2023-05-21T19:11:41.109Z,54.68
2023-05-21T19:16:43.058Z,54.65
2023-05-21T19:21:45.015Z,54.57
2023-05-21T19:26:46.869Z,54.91
2023-05-21T19:31:48.786Z,55.09
2023-05-21T19:36:53.772Z,55.94
2023-05-21T19:41:55.938Z,56.42
2023-05-21T19:46:59.420Z,56.21
2023-05-21T19:52:02.494Z,56.57
2023-05-21T19:57:04.514Z,56.93
2023-05-21T20:02:07.129Z,57.41
2023-05-21T20:07:09.208Z,57.38
2023-05-21T20:12:11.030Z,57.44
2023-05-21T20:17:14.564Z,57.53
2023-05-21T20:22:16.991Z,57.47
2023-05-21T20:27:19.877Z,57.20
2023-05-21T20:32:21.674Z,57.48
2023-05-21T20:37:26.321Z,57.53
2023-05-21T20:42:33.942Z,57.76
2023-05-21T20:47:36.349Z,57.47
2023-05-21T20:52:38.144Z,57.63
2023-05-21T20:57:40.083Z,57.62
2023-05-21T21:02:42.100Z,57.43
2023-05-21T21:07:45.606Z,57.62
2023-05-21T21:12:47.917Z,58.01
2023-05-21T21:17:49.926Z,57.97
2023-05-21T21:22:52.215Z,57.91
2023-05-21T21:27:54.032Z,58.04
2023-05-21T21:32:55.988Z,57.87
2023-05-21T21:37:58.269Z,58.37
2023-05-21T21:43:00.062Z,58.25
2023-05-21T21:48:02.132Z,58.38
2023-05-21T21:53:05.890Z,58.40
2023-05-21T21:58:07.899Z,59.11
2023-05-21T22:03:12.234Z,59.58
2023-05-21T22:08:15.629Z,60.16
2023-05-21T22:13:17.343Z,60.78
2023-05-21T22:18:31.882Z,61.19
2023-05-21T22:23:41.268Z,61.60
2023-05-21T22:28:43.075Z,61.88
2023-05-21T22:33:44.970Z,62.08
2023-05-21T22:38:46.786Z,62.39
2023-05-21T22:43:48.569Z,62.65
2023-05-21T22:48:50.554Z,62.85
2023-05-21T22:53:52.788Z,63.19
2023-05-21T22:58:55.240Z,63.52
2023-05-21T23:03:57.068Z,64.17
2023-05-21T23:08:59.147Z,64.92
2023-05-21T23:14:00.903Z,66.54
2023-05-21T23:19:02.816Z,67.07
2023-05-21T23:24:05.665Z,67.97
2023-05-21T23:29:07.555Z,69.21
2023-05-21T23:34:10.116Z,69.77
2023-05-21T23:39:12.141Z,70.83
2023-05-21T23:44:15.434Z,71.15
2023-05-21T23:49:17.283Z,71.21
2023-05-21T23:54:19.177Z,70.94
2023-05-21T23:59:20.952Z,70.86
